Latest Weather Observations for Mareeba

IDQ60801

Issued at 11:02 pm EST Monday 18 June 2018 (issued every 10 minutes, with the page automatically refreshed every 10 minutes)

About weather observations | Map of weather stations | Latest weather observations for QLD | Other Formats
Station Details ID: 031210 Name: MAREEBA AIRPORT Lat: -17.07 Lon: 145.43 Height: 471.93 m
Data from the previous 72 hours. | See also: Recent months at Mareeba
Date/Time
EST
Temp
°C
App
Temp
°C
Dew
Point
°C
Rel
Hum
%
Delta-T
°C
Wind Press
QNH
hPa
Press
MSL
hPa
Rain since
9am
mm
Dir  Spd
km/h
Gust
km/h
Spd
kts
Gust
kts
18/11:00pm 14.9 10.2 7.9 63 3.6 SSE 22 32 12 17 1020.7 - 0.0
18/10:30pm 14.9 10.6 7.9 63 3.6 SSE 20 30 11 16 1021.1 - 0.0
18/10:00pm 15.1 10.9 7.6 61 3.8 SSE 19 26 10 14 1021.3 - 0.0
18/09:30pm 15.4 11.0 7.4 59 4.1 SSE 20 28 11 15 1021.1 - 0.0
18/09:00pm 15.7 11.6 7.7 59 4.1 SSE 19 26 10 14 1020.9 1019.0 0.0
18/08:30pm 16.0 11.8 7.5 57 4.3 SSE 19 24 10 13 1020.5 - 0.0
18/08:00pm 16.7 13.0 7.9 56 4.6 SSE 17 24 9 13 1020.2 - 0.0
18/07:30pm 17.6 13.4 8.2 54 4.9 SSE 20 28 11 15 1019.7 - 0.0
18/07:00pm 18.4 13.9 8.7 53 5.2 SE 22 30 12 16 1019.3 - 0.0
18/06:30pm 18.9 14.5 9.1 53 5.3 SE 22 30 12 16 1018.7 - 0.0
18/06:00pm 19.6 15.2 8.9 50 5.7 SSE 22 33 12 18 1018.4 1016.5 0.0
18/05:30pm 20.5 16.1 9.1 48 6.2 SSE 22 32 12 17 1017.9 - 0.0
18/05:00pm 21.8 17.1 9.3 45 6.8 SSE 24 33 13 18 1017.3 - 0.0
18/04:30pm 23.5 18.9 9.5 41 7.8 SSE 24 33 13 18 1016.9 - 0.0
18/04:00pm 24.6 21.0 9.7 39 8.3 SSE 19 26 10 14 1016.8 - 0.0
18/03:30pm 25.1 21.5 9.8 38 8.6 SSE 19 26 10 14 1016.7 - 0.0
18/03:00pm 25.0 22.0 9.3 37 8.7 SSE 15 20 8 11 1016.8 1014.9 0.0
18/02:30pm 25.0 21.9 8.9 36 8.9 ESE 15 22 8 12 1017.0 - 0.0
18/02:00pm 26.0 23.9 9.8 36 9.1 SE 11 22 6 12 1017.3 - 0.0
18/01:30pm 24.0 20.8 8.4 37 8.5 SE 15 22 8 12 1017.7 - 0.0
18/01:00pm 24.3 21.1 8.3 36 8.7 SE 15 24 8 13 1018.2 - 0.0
18/12:30pm 23.6 19.3 7.7 36 8.5 SSE 20 28 11 15 1018.8 - 0.0
18/12:00pm 23.1 18.3 7.2 36 8.4 SSE 22 32 12 17 1019.3 1017.5 0.0
18/11:30am 23.0 18.5 7.1 36 8.4 SE 20 30 11 16 1019.6 - 0.0
18/11:00am 22.1 16.9 7.1 38 7.9 SE 24 32 13 17 1020.2 - 0.0
18/10:30am 21.9 16.6 7.0 38 7.8 SSE 24 33 13 18 1020.5 - 0.0
18/10:00am 20.7 15.7 6.6 40 7.3 SSE 22 32 12 17 1020.6 - 0.0
18/09:30am 19.7 13.9 6.4 42 6.8 SE 26 35 14 19 1020.7 - 0.0
18/09:00am 18.6 13.2 6.4 45 6.2 SSE 24 33 13 18 1020.7 1018.8 0.0
18/08:30am 18.5 13.6 6.7 46 6.0 SE 22 33 12 18 1020.7 - 0.0
18/08:00am 18.2 13.6 6.7 47 5.9 SE 20 32 11 17 1020.5 - 0.0
18/07:30am 16.5 12.1 6.6 52 5.0 SE 19 26 10 14 1020.2 - 0.0
18/07:00am 16.2 12.3 7.2 55 4.6 SSE 17 22 9 12 1020.0 - 0.0
18/06:30am 16.4 11.9 7.1 54 4.7 SE 20 28 11 15 1019.7 - 0.0
18/06:00am 16.2 11.8 7.2 55 4.6 SE 20 26 11 14 1019.3 1017.5 0.0
18/05:30am 16.5 11.8 7.7 56 4.5 SE 22 32 12 17 1019.2 - 0.0
18/05:00am 16.4 12.7 7.9 57 4.4 SE 17 22 9 12 1019.4 - 0.0
18/04:30am 16.5 12.3 8.2 58 4.3 SE 20 30 11 16 1019.1 - 0.0
18/04:00am 16.3 12.4 8.5 60 4.1 SE 19 26 10 14 1018.9 - 0.0
18/03:30am 16.3 12.4 8.5 60 4.1 SE 19 30 10 16 1019.0 - 0.0
18/03:00am 16.5 12.4 8.5 59 4.2 SE 20 28 11 15 1018.9 1017.0 0.0
18/02:30am 16.7 12.6 8.7 59 4.2 SE 20 28 11 15 1018.9 - 0.0
18/02:00am 17.0 12.9 8.7 58 4.4 SE 20 26 11 14 1019.2 - 0.0
18/01:30am 17.0 13.0 8.9 59 4.3 SE 20 26 11 14 1019.7 - 0.0
18/01:00am 17.0 12.7 9.4 61 4.1 SE 22 30 12 16 1020.0 - 0.0
18/12:30am 16.9 11.9 9.6 62 3.9 SSE 26 35 14 19 1020.3 - 0.0
18/12:00am 17.3 13.4 9.5 60 4.2 SE 20 30 11 16 1020.5 1018.6 0.0
 
Date/Time
EST
Temp
°C
App
Temp
°C
Dew
Point
°C
Rel
Hum
%
Delta-T
°C
Wind Press
QNH
hPa
Press
MSL
hPa
Rain since
9am
mm
Dir  Spd
km/h
Gust
km/h
Spd
kts
Gust
kts
17/11:30pm 17.3 13.6 10.0 62 3.9 SE 20 28 11 15 1020.6 - 0.0
17/11:00pm 17.3 13.2 10.2 63 3.9 SSE 22 32 12 17 1021.0 - 0.0
17/10:30pm 17.2 13.1 10.1 63 3.8 SSE 22 30 12 16 1021.1 - 0.0
17/10:00pm 17.2 12.3 9.9 62 3.9 SE 26 35 14 19 1021.0 - 0.0
17/09:30pm 17.7 13.3 8.8 56 4.7 SE 22 30 12 16 1020.7 - 0.0
17/09:00pm 18.1 13.0 7.8 51 5.4 SSE 24 35 13 19 1020.6 1018.7 0.0
17/08:30pm 18.3 13.2 7.7 50 5.5 SSE 24 33 13 18 1020.5 - 0.0
17/08:00pm 18.5 13.7 7.3 48 5.8 SSE 22 30 12 16 1020.3 - 0.0
17/07:30pm 18.9 13.4 7.4 47 6.0 SSE 26 35 14 19 1020.0 - 0.0
17/07:00pm 19.2 14.2 8.2 49 5.8 SSE 24 33 13 18 1019.7 - 0.0
17/06:30pm 19.6 14.4 8.9 50 5.7 SSE 26 41 14 22 1019.4 - 0.0
17/06:00pm 20.0 14.6 9.6 51 5.7 SE 28 39 15 21 1019.1 1017.2 0.0
17/05:30pm 21.0 17.2 11.1 53 5.6 SSE 22 35 12 19 1018.7 - 0.0
17/05:00pm 21.9 17.4 11.3 51 6.0 SSE 26 35 14 19 1018.2 - 0.0
17/04:30pm 23.7 20.9 13.3 52 6.2 SSE 20 30 11 16 1017.9 - 0.0
17/04:00pm 24.5 21.8 13.4 50 6.6 SSE 20 30 11 16 1017.6 - 0.0
17/03:30pm 24.8 22.4 13.7 50 6.6 SSE 19 26 10 14 1017.4 - 0.0
17/03:00pm 25.4 22.8 13.9 49 6.9 SSE 20 30 11 16 1017.2 1015.3 0.0
17/02:30pm 25.9 23.4 14.1 48 7.1 S 20 30 11 16 1017.4 - 0.0
17/02:00pm 26.1 23.9 14.9 50 6.9 S 20 32 11 17 1017.6 - 0.0
17/01:30pm 25.0 21.8 13.2 48 7.0 SSE 22 28 12 15 1018.0 - 0.0
17/01:00pm 24.2 21.3 14.0 53 6.1 SSE 22 30 12 16 1018.2 - 0.0
17/12:30pm 24.4 21.6 14.2 53 6.1 SSE 22 32 12 17 1018.8 - 0.0
17/12:00pm 24.1 21.4 14.5 55 5.8 SSE 22 32 12 17 1019.3 1017.5 0.0
17/11:30am 24.0 20.7 14.1 54 5.9 SE 24 32 13 17 1019.7 - 0.0
17/11:00am 23.0 20.1 14.0 57 5.4 SE 22 32 12 17 1020.1 - 0.0
17/10:30am 22.7 19.4 14.0 58 5.2 SE 24 33 13 18 1020.3 - 0.0
17/10:00am 21.4 17.6 14.6 65 4.1 SSE 28 39 15 21 1020.5 - 0.0
17/09:30am 21.2 18.1 14.6 66 4.0 SE 24 39 13 21 1020.5 - 0.0
17/09:00am 19.7 16.7 14.7 73 3.0 SE 24 37 13 20 1020.5 1018.6 0.0
17/08:30am 18.5 15.7 14.4 77 2.4 SE 22 32 12 17 1020.4 - 0.0
17/08:00am 17.8 14.5 14.1 79 2.2 SE 24 33 13 18 1020.3 - 0.0
17/07:30am 17.3 14.5 14.2 82 1.8 SSE 22 32 12 17 1020.1 - 0.0
17/07:00am 16.9 14.0 14.0 83 1.7 SSE 22 33 12 18 1020.1 - 0.0
17/06:30am 16.8 13.9 14.1 84 1.6 SSE 22 30 12 16 1019.7 - 0.0
17/06:00am 16.8 14.9 14.1 84 1.6 SSE 17 22 9 12 1019.7 1017.9 0.0
17/05:30am 16.7 14.2 13.6 82 1.8 SSE 19 26 10 14 1019.5 - 0.0
17/05:00am 16.9 14.0 13.0 78 2.2 SE 20 28 11 15 1019.5 - 0.0
17/04:30am 16.9 13.2 12.8 77 2.3 SE 24 35 13 19 1019.4 - 0.0
17/04:00am 16.9 13.0 12.0 73 2.7 SE 24 35 13 19 1019.3 - 0.0
17/03:30am 17.2 13.9 12.9 76 2.5 SSE 22 30 12 16 1019.1 - 0.0
17/03:00am 17.2 14.3 12.9 76 2.4 SSE 20 28 11 15 1019.2 1017.4 0.0
17/02:30am 17.1 15.3 13.2 78 2.2 SSE 15 20 8 11 1019.4 - 0.0
17/02:00am 17.3 15.5 13.2 77 2.4 SSE 15 26 8 14 1019.9 - 0.0
17/01:30am 17.8 16.1 13.5 76 2.5 SE 15 20 8 11 1020.3 - 0.0
17/01:00am 18.3 16.7 13.8 75 2.6 SE 15 20 8 11 1020.3 - 0.0
17/12:30am 18.9 16.6 14.2 74 2.8 SE 19 24 10 13 1020.5 - 0.0
17/12:00am 19.2 16.6 13.8 71 3.2 SE 20 28 11 15 1020.6 1018.7 0.0
 
Date/Time
EST
Temp
°C
App
Temp
°C
Dew
Point
°C
Rel
Hum
%
Delta-T
°C
Wind Press
QNH
hPa
Press
MSL
hPa
Rain since
9am
mm
Dir  Spd
km/h
Gust
km/h
Spd
kts
Gust
kts
16/11:30pm 19.1 16.2 14.1 73 2.9 SSE 22 30 12 16 1020.7 - 0.0
16/11:00pm 19.2 17.1 14.7 75 2.7 SE 19 26 10 14 1020.5 - 0.0
16/10:30pm 19.2 17.6 15.1 77 2.5 SE 17 24 9 13 1020.4 - 0.0
16/10:00pm 19.3 18.2 15.4 78 2.3 SSE 15 20 8 11 1020.7 - 0.0
16/09:30pm 19.3 17.0 15.6 79 2.2 SE 22 30 12 16 1020.7 - 0.0
16/09:00pm 19.3 17.8 15.4 78 2.3 SE 17 22 9 12 1020.8 1018.9 0.0
16/08:30pm 19.6 18.5 15.3 76 2.6 SSE 15 24 8 13 1020.8 - 0.0
16/08:00pm 19.9 17.7 14.9 73 3.0 SE 20 28 11 15 1020.5 - 0.0
16/07:30pm 20.2 18.1 14.8 71 3.2 SE 19 28 10 15 1020.4 - 0.0
16/07:00pm 20.6 18.2 14.5 68 3.6 SE 20 30 11 16 1020.1 - 0.0
16/06:30pm 21.0 18.6 13.7 63 4.3 SSE 19 26 10 14 1019.9 - 0.0
16/06:00pm 22.0 19.6 13.9 60 4.8 SE 19 28 10 15 1019.9 1018.0 0.0
16/05:30pm 22.7 20.7 14.0 58 5.2 ESE 17 20 9 11 1019.4 - 0.0
16/05:00pm 23.4 21.3 13.6 54 5.8 ESE 17 20 9 11 1019.1 - 0.0
16/04:30pm 23.9 21.7 13.4 51 6.2 SE 17 20 9 11 1019.0 - 0.0
16/04:00pm 25.5 23.3 13.4 47 7.2 SE 17 32 9 17 1018.7 - 0.0
16/03:30pm 24.7 22.5 13.3 49 6.8 S 17 24 9 13 1018.7 - 0.0
16/03:00pm 25.5 23.0 13.4 47 7.2 ESE 19 24 10 13 1018.6 1016.7 0.0
16/02:30pm 24.8 22.5 13.0 47 7.0 SSE 17 20 9 11 1018.7 - 0.0
16/02:00pm 25.7 23.4 14.2 49 7.0 SSE 19 26 10 14 1018.9 - 0.0
16/01:30pm 25.1 23.3 13.3 48 7.0 E 15 22 8 12 1019.1 - 0.0
16/01:00pm 25.2 22.8 13.7 49 6.9 ESE 19 28 10 15 1019.5 - 0.0
16/12:30pm 25.6 24.6 13.5 47 7.2 SSE 11 20 6 11 1020.4 - 0.0
16/12:00pm 25.2 23.7 14.3 50 6.6 SE 15 22 8 12 1020.8 1018.9 0.0
16/11:30am 23.7 21.7 13.8 53 5.9 SE 17 26 9 14 1021.3 - 0.0
16/11:00am 23.7 22.6 14.4 56 5.6 E 13 30 7 16 1021.5 - 0.0
16/10:30am 22.9 20.5 14.5 59 5.1 SE 20 32 11 17 1021.8 - 0.0
16/10:00am 21.6 19.7 15.2 67 3.9 SE 19 28 10 15 1021.9 - 0.0
16/09:30am 20.0 17.9 14.6 71 3.2 SSE 19 26 10 14 1021.7 - 0.0
16/09:00am 19.4 17.8 14.9 75 2.7 SSE 17 20 9 11 1021.9 1020.1 0.0
16/08:30am 18.4 16.7 14.7 79 2.2 SE 17 26 9 14 1021.6 - 0.0
16/08:00am 18.4 16.5 15.1 81 2.0 SE 19 26 10 14 1021.2 - 0.0
16/07:30am 17.1 15.4 14.6 85 1.5 SSE 17 24 9 13 1020.9 - 0.0
16/07:00am 17.0 14.6 14.3 84 1.6 SSE 20 26 11 14 1020.5 - 0.0
16/06:30am 17.0 14.4 13.9 82 1.8 SSE 20 28 11 15 1020.2 - 0.0
16/06:00am 16.9 14.6 14.2 84 1.6 SSE 19 28 10 15 1020.1 1018.2 0.0
16/05:30am 17.3 15.1 14.4 83 1.7 SE 19 28 10 15 1019.9 - 0.0
16/05:00am 17.2 15.7 14.3 83 1.7 SSE 15 22 8 12 1020.0 - 0.0
16/04:30am 17.4 15.5 14.3 82 1.8 SSE 17 22 9 12 1020.0 - 0.0
16/04:00am 17.5 14.8 14.6 83 1.7 SSE 22 30 12 16 1019.5 - 0.0
16/03:30am 17.4 15.0 14.5 83 1.7 SSE 20 28 11 15 1019.9 - 0.0
16/03:00am 17.7 15.5 14.8 83 1.7 SSE 20 30 11 16 1020.0 1018.1 0.0
16/02:30am 17.4 15.1 14.7 84 1.6 SSE 20 26 11 14 1020.1 - 0.0
16/02:00am 17.2 15.8 14.5 84 1.6 S 15 20 8 11 1020.4 - 0.0
16/01:30am 17.7 16.7 14.6 82 1.8 SSE 13 19 7 10 1020.7 - 0.0
16/01:00am 17.8 16.5 14.7 82 1.8 SSE 15 20 8 11 1021.2 - 0.0
16/12:30am 17.8 16.2 14.9 83 1.7 SSE 17 22 9 12 1021.1 - 0.0
16/12:00am 17.3 16.8 14.8 85 1.5 SE 11 13 6 7 1021.4 1019.6 0.0
 
Date/Time
EST
Temp
°C
App
Temp
°C
Dew
Point
°C
Rel
Hum
%
Delta-T
°C
Wind Press
QNH
hPa
Press
MSL
hPa
Rain since
9am
mm
Dir  Spd
km/h
Gust
km/h
Spd
kts
Gust
kts
15/11:30pm 17.2 18.2 14.3 83 1.7 SE 2 9 1 5 1021.6 - 0.0

Other Formats:

Comma delimited format used in spreadsheet applications
http://www.bom.gov.au/fwo/IDQ60801/IDQ60801.95286.axf

JavaScript Object Notation format (JSON) in row-major order
http://www.bom.gov.au/fwo/IDQ60801/IDQ60801.95286.json